Buoy 43533

sailwx.info

Track history (hours):
 
Tides and Currents Weather Stations Pressure Air Temp Water Temp Dewpoint Dewpoint Depression Visibility Wind Speed Wind Dir Waves Ship Positions

Drifting buoy 43533

Last reported at 2015-Feb-27 16:00 UTC. Time now 2015-Feb-27 16:55 UTC.
Position N 19°27' W 105°33'.

Length 24 m.

Type: Fishing. MMSI: 412466549.

Water temperature 25.4 ° C

Date/timePositionNaut miles runAvg speedWind from/ knotsBaromVisibWave heightAir tempDewpointWater temp
2015-Feb-27 16:00N 19°27' W 105°33'1 0.4 25.4
2015-Feb-27 13:00N 19°28' W 105°33'1 0.5 25.4
2015-Feb-27 12:00N 19°29' W 105°34'1 0.8 25.4
2015-Feb-27 11:00N 19°29' W 105°34'0 0.3 25.4
2015-Feb-27 10:00N 19°29' W 105°34'2 1.1 25.5
2015-Feb-27 08:00N 19°31' W 105°36'0 0.0 25.5
2015-Feb-27 05:00N 19°31' W 105°36'4 0.7 25.5
2015-Feb-26 23:00N 19°34' W 105°38'1 0.4 25.7
2015-Feb-26 21:00N 19°35' W 105°38'1 1.2 25.6
2015-Feb-26 20:00N 19°36' W 105°39'3 1.1 25.6
2015-Feb-26 17:00N 19°38' W 105°42'0 0.0 25.6
2015-Feb-26 16:00N 19°38' W 105°42'1 0.4 25.5
2015-Feb-26 13:00N 19°39' W 105°42'0 0.4 25.5
2015-Feb-26 12:00N 19°39' W 105°43'1 1.1 25.5
2015-Feb-26 11:00N 19°39' W 105°44'0 0.2 25.5
2015-Feb-26 10:00N 19°39' W 105°44'0 0.0 25.5
2015-Feb-26 09:00N 19°39' W 105°44'1 1.2 25.6
2015-Feb-26 08:00N 19°40' W 105°44'0 0.0 25.6
2015-Feb-26 05:00N 19°40' W 105°44'0 0.1 25.6
2015-Feb-26 04:00N 19°40' W 105°43'2 0.8 25.6
2015-Feb-26 01:00N 19°43' W 105°44'0 0.1 25.7
2015-Feb-25 23:00N 19°43' W 105°44'1 1.3 25.7
2015-Feb-25 22:00N 19°44' W 105°44'1 1.0 25.7
2015-Feb-25 21:00N 19°45' W 105°44'0 0.0 25.7
2015-Feb-25 20:00N 19°45' W 105°44'3 0.8 25.7
2015-Feb-25 17:00N 19°47' W 105°45'1 0.6 25.6
2015-Feb-25 16:00N 19°48' W 105°44'1 1.4 25.6
2015-Feb-25 15:00N 19°49' W 105°45'2 0.5 25.6
2015-Feb-25 12:00N 19°50' W 105°47'0 0.0 25.7
2015-Feb-25 11:00N 19°50' W 105°47'1 0.8 25.7
2015-Feb-25 10:00N 19°50' W 105°47'1 0.1 25.7
2015-Feb-25 05:00N 19°51' W 105°47'1 1.0 25.8
2015-Feb-25 04:00N 19°51' W 105°48'0 0.5 25.8
2015-Feb-25 03:00N 19°51' W 105°47'0 0.1 25.8
2015-Feb-25 02:00N 19°51' W 105°47'0 0.0 25.8
2015-Feb-25 01:00N 19°51' W 105°47'1 1.1 25.9
2015-Feb-25 00:00N 19°51' W 105°49'0 0.1 26.1
2015-Feb-24 23:00N 19°51' W 105°49'0 0.4 26.2
2015-Feb-24 22:00N 19°51' W 105°49'0 0.0 26.5
2015-Feb-24 21:00N 19°51' W 105°49'0 0.0 26.6
2015-Feb-24 20:00N 19°51' W 105°49'0 0.5 26.5
2015-Feb-24 19:00N 19°51' W 105°49'0 0.1 26.3
2015-Feb-24 17:00N 19°52' W 105°49'1 0.6 26.5
2015-Feb-24 16:00N 19°52' W 105°49'0 0.0 25.9
2015-Feb-24 15:00N 19°52' W 105°49'0 0.1 25.7
2015-Feb-24 13:00N 19°52' W 105°49'1 1.0 25.7
2015-Feb-24 12:00N 19°53' W 105°50'1 1.4 25.6
2015-Feb-24 11:00N 19°52' W 105°51'1 0.5 25.6
2015-Feb-24 09:00N 19°52' W 105°52'1 0.7 25.6
2015-Feb-24 08:00N 19°52' W 105°52'1 0.3 25.6
2015-Feb-24 05:00N 19°52' W 105°52'0 0.2 25.8
2015-Feb-24 03:00N 19°52' W 105°52'1 0.2 26.0
2015-Feb-23 23:00N 19°51' W 105°52'0 0.4 26.5
2015-Feb-23 22:00N 19°51' W 105°52'1 0.3 26.3
2015-Feb-23 20:00N 19°51' W 105°53'0 0.1 26.3
2015-Feb-23 17:00N 19°51' W 105°53'0 0.4 25.8
2015-Feb-23 16:00N 19°51' W 105°53'0 0.0 25.6
2015-Feb-23 15:00N 19°51' W 105°53'0 0.1 25.6
2015-Feb-23 13:00N 19°50' W 105°53'0 0.3 25.6
2015-Feb-23 12:00N 19°50' W 105°52'1 0.5 25.6
2015-Feb-23 11:00N 19°51' W 105°53'2 0.8 25.6
2015-Feb-23 09:00N 19°50' W 105°54'0 0.0 25.6
2015-Feb-23 04:00N 19°50' W 105°54'1 0.6 25.7
2015-Feb-23 03:00N 19°50' W 105°54'1 0.5 25.7
2015-Feb-23 02:00N 19°50' W 105°54'1 1.0 25.8
2015-Feb-23 01:00N 19°50' W 105°53'0 0.4 25.8
2015-Feb-23 00:00N 19°49' W 105°53'1 0.5 25.9
2015-Feb-22 22:00N 19°49' W 105°54'0 0.0 26.2
2015-Feb-22 20:00N 19°49' W 105°54'1 0.2 26.0
2015-Feb-22 17:00N 19°48' W 105°54'0 0.3 25.8
2015-Feb-22 16:00N 19°49' W 105°54'0 0.0 25.6
2015-Feb-22 15:00N 19°49' W 105°54'1 0.6 25.6
2015-Feb-22 14:00N 19°49' W 105°53'0 0.0 25.6
2015-Feb-22 13:00N 19°49' W 105°53'0 0.3 25.6
2015-Feb-22 12:00N 19°49' W 105°53'1 0.4 25.6
2015-Feb-22 09:00N 19°48' W 105°55'0 0.1 25.6
2015-Feb-22 05:00N 19°49' W 105°54'0 0.2 25.7
2015-Feb-22 03:00N 19°48' W 105°54'0 0.2 25.7
2015-Feb-22 02:00N 19°48' W 105°54'1 0.3 25.8
2015-Feb-21 23:00N 19°47' W 105°55'1 0.5 26.0
2015-Feb-21 21:00N 19°47' W 105°56'1 0.2 26.1
2015-Feb-21 18:00N 19°47' W 105°56'3 0.4 25.8
2015-Feb-21 11:00N 19°45' W 105°54'0 0.0 25.6
2015-Feb-21 10:00N 19°45' W 105°54'1 0.5 25.6
2015-Feb-21 08:00N 19°45' W 105°55'1 0.2 25.7
2015-Feb-21 03:00N 19°46' W 105°54'1 0.2 25.7
2015-Feb-21 00:00N 19°45' W 105°55'0 0.3 26.0
2015-Feb-20 23:00N 19°46' W 105°55'0 0.1 26.1
2015-Feb-20 21:00N 19°46' W 105°55'0 0.0 26.2
2015-Feb-20 20:00N 19°46' W 105°55'1 0.5 26.1
2015-Feb-20 17:00N 19°46' W 105°57'1 0.5 25.7
2015-Feb-20 16:00N 19°45' W 105°57'1 0.4 25.6
2015-Feb-20 13:00N 19°44' W 105°58'1 0.6 25.6
2015-Feb-20 12:00N 19°44' W 105°57'1 0.9 25.6
2015-Feb-20 11:00N 19°43' W 105°58'1 0.2 25.6
2015-Feb-20 08:00N 19°42' W 105°58'0 0.0 25.7
2015-Feb-20 07:00N 19°42' W 105°58'1 0.1 25.8
2015-Feb-19 21:00N 19°43' W 105°57'2 0.5 26.6
2015-Feb-19 16:00N 19°43' W 105°59'1 0.5 25.6
2015-Feb-19 15:00N 19°43' W 105°59'0 0.1 25.6
2015-Feb-19 13:00N 19°43' W 105°60'2 0.6 25.6
2015-Feb-19 10:00N 19°44' W 106°02'1 0.8 25.6
2015-Feb-19 09:00N 19°43' W 106°02'0 0.5 25.6
2015-Feb-19 08:00N 19°43' W 106°02'2 0.5 25.6
2015-Feb-19 05:00N 19°42' W 106°04'0 0.0 25.6
2015-Feb-19 04:00N 19°42' W 106°04'1 1.4 25.6
2015-Feb-19 03:00N 19°41' W 106°04'2 0.4 25.7
2015-Feb-18 23:00N 19°39' W 106°04'0 0.1 25.8
2015-Feb-18 21:00N 19°39' W 106°04'0 0.0 25.8
2015-Feb-18 16:00N 19°39' W 106°04'0 0.0 25.6
2015-Feb-18 15:00N 19°39' W 106°04'1 1.1 25.6
2015-Feb-18 14:00N 19°38' W 106°03'0 0.0 25.5
2015-Feb-18 13:00N 19°38' W 106°03'1 0.3 25.6
2015-Feb-18 11:00N 19°39' W 106°03'1 0.8 25.6
2015-Feb-18 10:00N 19°40' W 106°02'1 0.7 25.6
2015-Feb-18 08:00N 19°41' W 106°03'0 0.0 25.6
2015-Feb-18 05:00N 19°41' W 106°03'1 0.5 25.7
2015-Feb-18 04:00N 19°40' W 106°04'1 0.7 25.7
2015-Feb-18 03:00N 19°41' W 106°04'0 0.1 25.7
2015-Feb-18 00:00N 19°41' W 106°04'1 0.7 25.7
2015-Feb-17 23:00N 19°42' W 106°04'1 0.3 25.8
2015-Feb-17 21:00N 19°42' W 106°05'1 1.2 25.8
2015-Feb-17 20:00N 19°42' W 106°06'2 0.6 25.7
2015-Feb-17 17:00N 19°42' W 106°08'0 0.4 25.6
2015-Feb-17 16:00N 19°41' W 106°08'   25.6
Track history (hours):
 
Tides and Currents Weather Stations Pressure Air Temp Water Temp Dewpoint Dewpoint Depression Visibility Wind Speed Wind Dir Waves Ship Positions

Drifting buoy 43533

Last reported at 2015-Feb-27 16:00 UTC. Time now 2015-Feb-27 16:55 UTC.
Position N 19°27' W 105°33'.

Length 24 m.

Type: Fishing. MMSI: 412466549.

Water temperature 25.4 ° C

Date/timePositionNaut miles runAvg speedWind from/ knotsBaromVisibWave heightAir tempDewpointWater temp
2015-Feb-27 16:00N 19°27' W 105°33'1 0.4 25.4
2015-Feb-27 13:00N 19°28' W 105°33'1 0.5 25.4
2015-Feb-27 12:00N 19°29' W 105°34'1 0.8 25.4
2015-Feb-27 11:00N 19°29' W 105°34'0 0.3 25.4
2015-Feb-27 10:00N 19°29' W 105°34'2 1.1 25.5
2015-Feb-27 08:00N 19°31' W 105°36'0 0.0 25.5
2015-Feb-27 05:00N 19°31' W 105°36'4 0.7 25.5
2015-Feb-26 23:00N 19°34' W 105°38'1 0.4 25.7
2015-Feb-26 21:00N 19°35' W 105°38'1 1.2 25.6
2015-Feb-26 20:00N 19°36' W 105°39'3 1.1 25.6
2015-Feb-26 17:00N 19°38' W 105°42'0 0.0 25.6
2015-Feb-26 16:00N 19°38' W 105°42'1 0.4 25.5
2015-Feb-26 13:00N 19°39' W 105°42'0 0.4 25.5
2015-Feb-26 12:00N 19°39' W 105°43'1 1.1 25.5
2015-Feb-26 11:00N 19°39' W 105°44'0 0.2 25.5
2015-Feb-26 10:00N 19°39' W 105°44'0 0.0 25.5
2015-Feb-26 09:00N 19°39' W 105°44'1 1.2 25.6
2015-Feb-26 08:00N 19°40' W 105°44'0 0.0 25.6
2015-Feb-26 05:00N 19°40' W 105°44'0 0.1 25.6
2015-Feb-26 04:00N 19°40' W 105°43'2 0.8 25.6
2015-Feb-26 01:00N 19°43' W 105°44'0 0.1 25.7
2015-Feb-25 23:00N 19°43' W 105°44'1 1.3 25.7
2015-Feb-25 22:00N 19°44' W 105°44'1 1.0 25.7
2015-Feb-25 21:00N 19°45' W 105°44'0 0.0 25.7
2015-Feb-25 20:00N 19°45' W 105°44'3 0.8 25.7
2015-Feb-25 17:00N 19°47' W 105°45'1 0.6 25.6
2015-Feb-25 16:00N 19°48' W 105°44'1 1.4 25.6
2015-Feb-25 15:00N 19°49' W 105°45'2 0.5 25.6
2015-Feb-25 12:00N 19°50' W 105°47'0 0.0 25.7
2015-Feb-25 11:00N 19°50' W 105°47'1 0.8 25.7
2015-Feb-25 10:00N 19°50' W 105°47'1 0.1 25.7
2015-Feb-25 05:00N 19°51' W 105°47'1 1.0 25.8
2015-Feb-25 04:00N 19°51' W 105°48'0 0.5 25.8
2015-Feb-25 03:00N 19°51' W 105°47'0 0.1 25.8
2015-Feb-25 02:00N 19°51' W 105°47'0 0.0 25.8
2015-Feb-25 01:00N 19°51' W 105°47'1 1.1 25.9
2015-Feb-25 00:00N 19°51' W 105°49'0 0.1 26.1
2015-Feb-24 23:00N 19°51' W 105°49'0 0.4 26.2
2015-Feb-24 22:00N 19°51' W 105°49'0 0.0 26.5
2015-Feb-24 21:00N 19°51' W 105°49'0 0.0 26.6
2015-Feb-24 20:00N 19°51' W 105°49'0 0.5 26.5
2015-Feb-24 19:00N 19°51' W 105°49'0 0.1 26.3
2015-Feb-24 17:00N 19°52' W 105°49'1 0.6 26.5
2015-Feb-24 16:00N 19°52' W 105°49'0 0.0 25.9
2015-Feb-24 15:00N 19°52' W 105°49'0 0.1 25.7
2015-Feb-24 13:00N 19°52' W 105°49'1 1.0 25.7
2015-Feb-24 12:00N 19°53' W 105°50'1 1.4 25.6
2015-Feb-24 11:00N 19°52' W 105°51'1 0.5 25.6
2015-Feb-24 09:00N 19°52' W 105°52'1 0.7 25.6
2015-Feb-24 08:00N 19°52' W 105°52'1 0.3 25.6
2015-Feb-24 05:00N 19°52' W 105°52'0 0.2 25.8
2015-Feb-24 03:00N 19°52' W 105°52'1 0.2 26.0
2015-Feb-23 23:00N 19°51' W 105°52'0 0.4 26.5
2015-Feb-23 22:00N 19°51' W 105°52'1 0.3 26.3
2015-Feb-23 20:00N 19°51' W 105°53'0 0.1 26.3
2015-Feb-23 17:00N 19°51' W 105°53'0 0.4 25.8
2015-Feb-23 16:00N 19°51' W 105°53'0 0.0 25.6
2015-Feb-23 15:00N 19°51' W 105°53'0 0.1 25.6
2015-Feb-23 13:00N 19°50' W 105°53'0 0.3 25.6
2015-Feb-23 12:00N 19°50' W 105°52'1 0.5 25.6
2015-Feb-23 11:00N 19°51' W 105°53'2 0.8 25.6
2015-Feb-23 09:00N 19°50' W 105°54'0 0.0 25.6
2015-Feb-23 04:00N 19°50' W 105°54'1 0.6 25.7
2015-Feb-23 03:00N 19°50' W 105°54'1 0.5 25.7
2015-Feb-23 02:00N 19°50' W 105°54'1 1.0 25.8
2015-Feb-23 01:00N 19°50' W 105°53'0 0.4 25.8
2015-Feb-23 00:00N 19°49' W 105°53'1 0.5 25.9
2015-Feb-22 22:00N 19°49' W 105°54'0 0.0 26.2
2015-Feb-22 20:00N 19°49' W 105°54'1 0.2 26.0
2015-Feb-22 17:00N 19°48' W 105°54'0 0.3 25.8
2015-Feb-22 16:00N 19°49' W 105°54'0 0.0 25.6
2015-Feb-22 15:00N 19°49' W 105°54'1 0.6 25.6
2015-Feb-22 14:00N 19°49' W 105°53'0 0.0 25.6
2015-Feb-22 13:00N 19°49' W 105°53'0 0.3 25.6
2015-Feb-22 12:00N 19°49' W 105°53'1 0.4 25.6
2015-Feb-22 09:00N 19°48' W 105°55'0 0.1 25.6
2015-Feb-22 05:00N 19°49' W 105°54'0 0.2 25.7
2015-Feb-22 03:00N 19°48' W 105°54'0 0.2 25.7
2015-Feb-22 02:00N 19°48' W 105°54'1 0.3 25.8
2015-Feb-21 23:00N 19°47' W 105°55'1 0.5 26.0
2015-Feb-21 21:00N 19°47' W 105°56'1 0.2 26.1
2015-Feb-21 18:00N 19°47' W 105°56'3 0.4 25.8
2015-Feb-21 11:00N 19°45' W 105°54'0 0.0 25.6
2015-Feb-21 10:00N 19°45' W 105°54'1 0.5 25.6
2015-Feb-21 08:00N 19°45' W 105°55'1 0.2 25.7
2015-Feb-21 03:00N 19°46' W 105°54'1 0.2 25.7
2015-Feb-21 00:00N 19°45' W 105°55'0 0.3 26.0
2015-Feb-20 23:00N 19°46' W 105°55'0 0.1 26.1
2015-Feb-20 21:00N 19°46' W 105°55'0 0.0 26.2
2015-Feb-20 20:00N 19°46' W 105°55'1 0.5 26.1
2015-Feb-20 17:00N 19°46' W 105°57'1 0.5 25.7
2015-Feb-20 16:00N 19°45' W 105°57'1 0.4 25.6
2015-Feb-20 13:00N 19°44' W 105°58'1 0.6 25.6
2015-Feb-20 12:00N 19°44' W 105°57'1 0.9 25.6
2015-Feb-20 11:00N 19°43' W 105°58'1 0.2 25.6
2015-Feb-20 08:00N 19°42' W 105°58'0 0.0 25.7
2015-Feb-20 07:00N 19°42' W 105°58'1 0.1 25.8
2015-Feb-19 21:00N 19°43' W 105°57'2 0.5 26.6
2015-Feb-19 16:00N 19°43' W 105°59'1 0.5 25.6
2015-Feb-19 15:00N 19°43' W 105°59'0 0.1 25.6
2015-Feb-19 13:00N 19°43' W 105°60'2 0.6 25.6
2015-Feb-19 10:00N 19°44' W 106°02'1 0.8 25.6
2015-Feb-19 09:00N 19°43' W 106°02'0 0.5 25.6
2015-Feb-19 08:00N 19°43' W 106°02'2 0.5 25.6
2015-Feb-19 05:00N 19°42' W 106°04'0 0.0 25.6
2015-Feb-19 04:00N 19°42' W 106°04'1 1.4 25.6
2015-Feb-19 03:00N 19°41' W 106°04'2 0.4 25.7
2015-Feb-18 23:00N 19°39' W 106°04'0 0.1 25.8
2015-Feb-18 21:00N 19°39' W 106°04'0 0.0 25.8
2015-Feb-18 16:00N 19°39' W 106°04'0 0.0 25.6
2015-Feb-18 15:00N 19°39' W 106°04'1 1.1 25.6
2015-Feb-18 14:00N 19°38' W 106°03'0 0.0 25.5
2015-Feb-18 13:00N 19°38' W 106°03'1 0.3 25.6
2015-Feb-18 11:00N 19°39' W 106°03'1 0.8 25.6
2015-Feb-18 10:00N 19°40' W 106°02'1 0.7 25.6
2015-Feb-18 08:00N 19°41' W 106°03'0 0.0 25.6
2015-Feb-18 05:00N 19°41' W 106°03'1 0.5 25.7
2015-Feb-18 04:00N 19°40' W 106°04'1 0.7 25.7
2015-Feb-18 03:00N 19°41' W 106°04'0 0.1 25.7
2015-Feb-18 00:00N 19°41' W 106°04'1 0.7 25.7
2015-Feb-17 23:00N 19°42' W 106°04'1 0.3 25.8
2015-Feb-17 21:00N 19°42' W 106°05'1 1.2 25.8
2015-Feb-17 20:00N 19°42' W 106°06'2 0.6 25.7
2015-Feb-17 17:00N 19°42' W 106°08'0 0.4 25.6
2015-Feb-17 16:00N 19°41' W 106°08'   25.6

Dump ship's entire track history